• Join FlightAware (Why Join?)
  • Login
  • US Flag 
06:55AM EDT


 

Airport Tracker/Info


-or-


 

Live Flight TrackerFlight Track Log ✈ EJA947 ✈ 22-Apr-2013 ✈ KFSM - KSGR

Flight Track Log - Related Links

Times and Time Zones

All times are in EDT time to prevent confusion due to time zone crossing. See the EJA947 flight status page for this flight to view local times or setup timezone preferences in your user account.

Time Position Orientation Groundspeed Altitude Reporting Facility
EDT Latitude Longitude Course Direction KTS MPH feet Rate Location/Type
04:59PM 35.1417 -94.4147 180° South 273 314 10,800  Level Memphis Center
05:00PM 35.0569 -94.4514 200° South 292 336 12,500 1,860 Climbing Memphis Center
05:01PM 34.9639 -94.4900 199° South 331 381 14,600 1,920 Climbing Memphis Center
05:02PM 34.8667 -94.5308 199° South 360 414 16,400 1,980 Climbing Memphis Center
05:03PM 34.7227 -94.5776 198° South  Level FlightAware Approximate
05:03PM 34.7522 -94.5858 202° Southwest 393 452 18,600  Level Memphis Center
05:04PM 34.5981 -94.6000 180° South  Level FlightAware Approximate
05:04PM 34.6989 -94.6025 194° South 399 459 19,800  Level Fort Worth Center
05:05PM 34.5950 -94.6211 188° South 399 459 21,400 1,560 Climbing Fort Worth Center
05:06PM 34.4719 -94.6250 181° South 425 489 23,000 1,200 Climbing Fort Worth Center
05:07PM 34.3389 -94.6369 184° South 455 524 23,800 960 Climbing Fort Worth Center
05:08PM 34.2014 -94.6436 182° South 481 554 25,000 600 Climbing Fort Worth Center
05:09PM 34.0678 -94.6481 182° South 487 560 25,000  Level Fort Worth Center
05:10PM 33.9386 -94.6597 184° South 480 552 25,000 600 Level Fort Worth Center
05:11PM 33.8094 -94.6686 183° South 473 544 26,200 1,500 Climbing Fort Worth Center
05:12PM 33.6803 -94.6753 182° South 467 537 28,000 1,800 Climbing Fort Worth Center
05:13PM 33.5419 -94.6547 173° South 480 552 29,800 1,980 Climbing Fort Worth Center
05:14PM 33.4078 -94.5319 143° Southeast 516 594 32,000 1,980 Climbing Fort Worth Center
05:15PM 33.2864 -94.4217 143° Southeast 533 613 33,800 1,500 Climbing Fort Worth Center
05:16PM 33.1644 -94.3042 141° Southeast 553 636 35,000 600 Climbing Fort Worth Center
05:17PM 33.0447 -94.1917 142° Southeast 558 642 35,000  Level Fort Worth Center
05:18PM 32.9250 -94.0772 141° Southeast 558 642 35,000 -360 Level Fort Worth Center
05:19PM 32.8072 -93.9706 143° Southeast 541 623 34,300 -540 Descending Fort Worth Center
05:20PM 32.6958 -93.8661 142° Southeast 528 608 34,000 -180 Descending Fort Worth Center
05:21PM 32.5822 -93.7622 142° Southeast 523 602 34,000  Level Fort Worth Center
05:22PM 32.4706 -93.6558 141° Southeast 518 596 34,000  Level Fort Worth Center
05:23PM 32.3433 -93.5947 158° South 501 577 34,000  Level Fort Worth Center
05:24PM 32.2100 -93.6028 183° South 470 541 34,000  Level Fort Worth Center
05:25PM 32.0811 -93.6181 186° South 471 542 34,000  Level Fort Worth Center
05:26PM 31.9497 -93.6258 183° South 471 542 34,000  Level Fort Worth Center
05:27PM 31.7481 -93.6344 182° South 470 541 34,000  Level Houston Center
05:28PM 31.6275 -93.6744 196° South 451 519 34,000  Level Houston Center
05:29PM 31.5244 -93.7517 213° Southwest 440 506 34,000  Level Houston Center
05:30PM 31.4211 -93.8281 212° Southwest 438 504 34,000  Level Houston Center
05:31PM 31.3192 -93.9044 213° Southwest 436 502 34,000  Level Houston Center
05:32PM 31.1964 -93.9975 213° Southwest 436 502 34,000 -780 Level Houston Center
05:33PM 31.0931 -94.0736 212° Southwest 436 502 32,400 -1,920 Descending Houston Center
05:34PM 30.9878 -94.1517 212° Southwest 442 509 30,000 -2,340 Descending Houston Center
05:35PM 30.8803 -94.2322 213° Southwest 453 521 27,600 -2,340 Descending Houston Center
05:37PM 30.7742 -94.3097 212° Southwest 448 516 25,200 -2,460 Descending Houston Center
05:37PM 30.6869 -94.3756 213° Southwest 433 498 23,200 -2,340 Descending Houston Center
05:38PM 30.6683 -94.3886 211° Southwest 434 499 22,800 -2,160 Descending Houston Center
05:38PM 30.6281 -94.4172 211° Southwest 394 453 21,900 -1,980 Descending Houston Center
05:39PM 30.5800 -94.4536 213° Southwest 391 450 20,800 -1,920 Descending Houston Center
05:39PM 30.5458 -94.4789 213° Southwest 356 410 20,000 -1,980 Descending Houston Center
05:40PM 30.4922 -94.5233 216° Southwest 341 392 18,800 -1,800 Descending Houston Center
05:40PM 30.4731 -94.5517 232° Southwest 304 350 18,200 -1,560 Descending Houston Center
05:41PM 30.4411 -94.6014 233° Southwest 309 356 17,200 -1,800 Descending Houston Center
05:41PM 30.4167 -94.6414 235° Southwest 309 356 16,200 -1,800 Descending Houston Center
05:42PM 30.3897 -94.6828 233° Southwest 313 360 15,400 -1,620 Descending Houston Center
05:42PM 30.3633 -94.7208 231° Southwest 311 358 14,600 -1,500 Descending Houston Center
05:43PM 30.3397 -94.7594 235° Southwest 302 348 13,900 -1,560 Descending Houston Center
05:43PM 30.3158 -94.7947 232° Southwest 280 322 13,000 -1,440 Descending Houston Center
05:44PM 30.2931 -94.8314 234° Southwest 284 327 12,400 -1,500 Descending Houston Center
05:44PM 30.2664 -94.8711 232° Southwest 281 323 11,500 -1,500 Descending Houston Center
05:45PM 30.2458 -94.9033 234° Southwest 281 323 10,900 -1,500 Descending Houston Center
05:45PM 30.2169 -94.9475 233° Southwest 296 341 10,000 -900 Descending Houston Center
05:46PM 30.1869 -94.9939 233° Southwest 291 335 10,000 -120 Level Houston Center
05:46PM 30.1672 -95.0239 233° Southwest 290 334 9,900  Descending Houston Center
05:47PM 30.1378 -95.0678 232° Southwest 291 335 10,000 60 Climbing Houston Center
05:47PM 30.1056 -95.0822 201° Southwest 295 339 10,000  Level Houston Center
05:48PM 30.0611 -95.1019 201° Southwest 297 342 10,000  Level Houston Center
05:48PM 30.0267 -95.1161 200° South 295 339 10,000  Level Houston Center
05:49PM 29.9847 -95.1353 202° Southwest 295 339 10,000 -120 Level Houston Center
05:49PM 29.9500 -95.1497 200° South 295 339 9,900  Descending Houston Center
05:50PM 29.9078 -95.1683 201° Southwest 294 338 10,000 -720 Climbing Houston Center
05:50PM 29.8694 -95.1861 202° Southwest 294 338 9,200 -1,800 Descending Houston Center
05:51PM 29.8183 -95.2075 200° South 289 333 8,200 -1,620 Descending Houston Center
05:51PM 29.7947 -95.2169 199° South 276 318 7,600 -1,560 Descending Houston Center
05:52PM 29.7469 -95.2372 200° South 278 320 6,600 -1,560 Descending Houston Center
05:52PM 29.7236 -95.2447 196° South 265 305 6,000 -600 Descending Houston Center
05:53PM 29.6764 -95.2567 192° South 266 306 6,000 -120 Level Houston Center
05:53PM 29.6497 -95.2633 192° South 271 312 5,900  Descending Houston Center
05:54PM 29.6025 -95.2747 192° South 277 319 6,000 -720 Climbing Houston Center
05:54PM 29.5697 -95.2825 192° South 276 318 5,200 -2,040 Descending Houston Center
05:55PM 29.5394 -95.3292 233° Southwest 276 318 3,900 -1,980 Descending Houston Center
05:55PM 29.5403 -95.3511 273° West 263 303 3,200 -900 Descending Houston Center
05:56PM 29.5608 -95.4011 295° West 244 281 3,000 -120 Descending Houston Center
05:57PM 29.5906 -95.4494 305° West 194 223 3,000  Level Houston Center
05:58PM 29.6197 -95.4994 304° West 187 215 3,100 -480 Climbing Houston Center
05:59PM 29.6500 -95.5525 303° West 193 222 2,100 -720 Descending Houston Center
06:00PM 29.6864 -95.6197 302° West 181 208 1,600 -360 Descending Houston Center
06:01PM 29.6803 -95.6578 260° West 183 211 1,400 -600 Descending Houston Center
06:02PM 29.6447 -95.6594 182° South 152 175 500 -900 Descending Houston Center